sensor_id;sensor_type;location;lat;lon;timestamp;pressure;altitude;pressure_sealevel;temperature;humidity
64298;BME280;50639;53.270;7.956;2023-06-24T00:01:27;102465.28;;;16.02;77.12
64298;BME280;50639;53.270;7.956;2023-06-24T00:03:53;102464.84;;;15.98;77.30
64298;BME280;50639;53.270;7.956;2023-06-24T00:06:20;102464.38;;;15.95;77.06
64298;BME280;50639;53.270;7.956;2023-06-24T00:08:50;102462.06;;;15.92;77.00
64298;BME280;50639;53.270;7.956;2023-06-24T00:11:15;102466.22;;;15.79;79.57
64298;BME280;50639;53.270;7.956;2023-06-24T00:13:41;102469.56;;;15.82;78.45
64298;BME280;50639;53.270;7.956;2023-06-24T00:16:08;102469.94;;;15.78;79.35
64298;BME280;50639;53.270;7.956;2023-06-24T00:18:34;102464.00;;;15.83;78.68
64298;BME280;50639;53.270;7.956;2023-06-24T00:21:01;102469.41;;;15.83;79.76
64298;BME280;50639;53.270;7.956;2023-06-24T00:23:27;102466.22;;;15.79;80.39
64298;BME280;50639;53.270;7.956;2023-06-24T00:25:54;102467.91;;;15.80;79.62
64298;BME280;50639;53.270;7.956;2023-06-24T00:28:21;102464.19;;;15.82;79.56
64298;BME280;50639;53.270;7.956;2023-06-24T00:30:47;102469.94;;;15.78;79.83
64298;BME280;50639;53.270;7.956;2023-06-24T00:33:13;102462.97;;;15.84;79.35
64298;BME280;50639;53.270;7.956;2023-06-24T00:35:40;102456.72;;;15.84;78.89
64298;BME280;50639;53.270;7.956;2023-06-24T00:38:06;102454.88;;;15.84;78.63
64298;BME280;50639;53.270;7.956;2023-06-24T00:40:33;102462.88;;;15.77;78.00
64298;BME280;50639;53.270;7.956;2023-06-24T00:43:01;102464.91;;;15.75;78.38
64298;BME280;50639;53.270;7.956;2023-06-24T00:45:28;102454.50;;;15.72;78.57
64298;BME280;50639;53.270;7.956;2023-06-24T00:47:55;102463.97;;;15.68;78.01
64298;BME280;50639;53.270;7.956;2023-06-24T00:50:22;102457.66;;;15.61;77.81
64298;BME280;50639;53.270;7.956;2023-06-24T00:52:47;102462.56;;;15.58;78.40
64298;BME280;50639;53.270;7.956;2023-06-24T00:55:16;102453.47;;;15.59;78.14
64298;BME280;50639;53.270;7.956;2023-06-24T00:57:43;102462.16;;;15.46;78.18
64298;BME280;50639;53.270;7.956;2023-06-24T01:00:09;102452.22;;;15.47;78.43
64298;BME280;50639;53.270;7.956;2023-06-24T01:02:39;102459.06;;;15.49;78.12
64298;BME280;50639;53.270;7.956;2023-06-24T01:05:10;102466.69;;;15.46;77.93
64298;BME280;50639;53.270;7.956;2023-06-24T01:07:37;102455.75;;;15.47;77.98
64298;BME280;50639;53.270;7.956;2023-06-24T01:10:04;102467.53;;;15.46;77.45
64298;BME280;50639;53.270;7.956;2023-06-24T01:12:36;102464.53;;;15.41;77.73
64298;BME280;50639;53.270;7.956;2023-06-24T01:15:04;102463.25;;;15.37;77.73
64298;BME280;50639;53.270;7.956;2023-06-24T01:20:29;102452.66;;;15.35;77.78
64298;BME280;50639;53.270;7.956;2023-06-24T01:23:16;102453.38;;;15.29;77.61
64298;BME280;50639;53.270;7.956;2023-06-24T01:28:52;102448.41;;;15.18;78.01
64298;BME280;50639;53.270;7.956;2023-06-24T01:34:24;102448.66;;;15.09;78.21
64298;BME280;50639;53.270;7.956;2023-06-24T01:39:34;102446.09;;;14.92;78.25
64298;BME280;50639;53.270;7.956;2023-06-24T01:42:08;102446.81;;;14.86;78.28
64298;BME280;50639;53.270;7.956;2023-06-24T01:44:37;102448.84;;;14.84;78.42
64298;BME280;50639;53.270;7.956;2023-06-24T01:47:05;102451.72;;;14.83;78.06
64298;BME280;50639;53.270;7.956;2023-06-24T01:49:33;102463.19;;;14.77;79.11
64298;BME280;50639;53.270;7.956;2023-06-24T01:52:01;102457.31;;;14.73;79.31
64298;BME280;50639;53.270;7.956;2023-06-24T01:54:28;102458.88;;;14.67;79.01
64298;BME280;50639;53.270;7.956;2023-06-24T01:56:57;102462.41;;;14.68;79.56
64298;BME280;50639;53.270;7.956;2023-06-24T01:59:25;102466.41;;;14.72;79.20
64298;BME280;50639;53.270;7.956;2023-06-24T02:01:54;102448.06;;;14.76;79.64
64298;BME280;50639;53.270;7.956;2023-06-24T02:04:20;102455.41;;;14.82;79.28
64298;BME280;50639;53.270;7.956;2023-06-24T02:06:48;102458.28;;;14.80;79.43
64298;BME280;50639;53.270;7.956;2023-06-24T02:09:16;102460.69;;;14.75;79.03
64298;BME280;50639;53.270;7.956;2023-06-24T02:11:42;102454.47;;;14.75;79.23
64298;BME280;50639;53.270;7.956;2023-06-24T02:14:09;102451.09;;;14.73;79.35
64298;BME280;50639;53.270;7.956;2023-06-24T02:16:36;102448.59;;;14.71;79.12
64298;BME280;50639;53.270;7.956;2023-06-24T02:19:09;102448.25;;;14.74;78.99
64298;BME280;50639;53.270;7.956;2023-06-24T02:21:37;102440.34;;;14.73;78.59
64298;BME280;50639;53.270;7.956;2023-06-24T02:24:04;102448.25;;;14.74;78.60
64298;BME280;50639;53.270;7.956;2023-06-24T02:26:31;102440.34;;;14.73;78.75
64298;BME280;50639;53.270;7.956;2023-06-24T02:28:58;102438.50;;;14.73;78.49
64298;BME280;50639;53.270;7.956;2023-06-24T02:31:23;102435.81;;;14.73;78.65
64298;BME280;50639;53.270;7.956;2023-06-24T02:33:49;102442.53;;;14.69;78.03
64298;BME280;50639;53.270;7.956;2023-06-24T02:36:14;102444.94;;;14.64;78.28
64298;BME280;50639;53.270;7.956;2023-06-24T02:38:40;102443.44;;;14.61;78.77
64298;BME280;50639;53.270;7.956;2023-06-24T02:41:05;102439.91;;;14.61;79.11
64298;BME280;50639;53.270;7.956;2023-06-24T02:43:32;102439.44;;;14.57;79.14
64298;BME280;50639;53.270;7.956;2023-06-24T02:46:00;102446.66;;;14.57;78.83
64298;BME280;50639;53.270;7.956;2023-06-24T02:48:28;102451.19;;;14.56;79.10
64298;BME280;50639;53.270;7.956;2023-06-24T02:50:55;102449.53;;;14.55;79.53
64298;BME280;50639;53.270;7.956;2023-06-24T02:53:21;102447.38;;;14.51;79.09
64298;BME280;50639;53.270;7.956;2023-06-24T02:56:08;102451.25;;;14.48;79.12
64298;BME280;50639;53.270;7.956;2023-06-24T02:58:36;102452.09;;;14.49;78.91
64298;BME280;50639;53.270;7.956;2023-06-24T03:01:06;102455.47;;;14.43;79.48
64298;BME280;50639;53.270;7.956;2023-06-24T03:03:37;102460.69;;;14.36;79.54
64298;BME280;50639;53.270;7.956;2023-06-24T03:06:06;102462.91;;;14.32;78.76
64298;BME280;50639;53.270;7.956;2023-06-24T03:08:34;102463.22;;;14.29;79.43
64298;BME280;50639;53.270;7.956;2023-06-24T03:10:59;102473.97;;;14.29;79.95
64298;BME280;50639;53.270;7.956;2023-06-24T03:13:29;102472.28;;;14.37;79.56
64298;BME280;50639;53.270;7.956;2023-06-24T03:16:03;102475.97;;;14.36;79.86
64298;BME280;50639;53.270;7.956;2023-06-24T03:18:34;102483.06;;;14.28;79.67
64298;BME280;50639;53.270;7.956;2023-06-24T03:20:59;102472.31;;;14.28;79.79
64298;BME280;50639;53.270;7.956;2023-06-24T03:23:28;102472.97;;;14.30;79.23
64298;BME280;50639;53.270;7.956;2023-06-24T03:25:54;102475.84;;;14.29;79.26
64298;BME280;50639;53.270;7.956;2023-06-24T03:28:20;102476.34;;;14.32;79.53
64298;BME280;50639;53.270;7.956;2023-06-24T03:30:53;102473.44;;;14.34;79.70
64298;BME280;50639;53.270;7.956;2023-06-24T03:33:19;102477.66;;;14.37;79.45
64298;BME280;50639;53.270;7.956;2023-06-24T03:35:46;102473.81;;;14.39;78.90
64298;BME280;50639;53.270;7.956;2023-06-24T03:38:15;102477.16;;;14.41;78.66
64298;BME280;50639;53.270;7.956;2023-06-24T03:40:41;102473.63;;;14.41;78.11
64298;BME280;50639;53.270;7.956;2023-06-24T03:43:07;102474.78;;;14.38;78.53
64298;BME280;50639;53.270;7.956;2023-06-24T03:45:33;102473.63;;;14.41;79.51
64298;BME280;50639;53.270;7.956;2023-06-24T03:47:59;102473.28;;;14.44;79.37
64298;BME280;50639;53.270;7.956;2023-06-24T03:50:28;102478.31;;;14.47;79.90
64298;BME280;50639;53.270;7.956;2023-06-24T03:52:53;102481.66;;;14.49;79.76
64298;BME280;50639;53.270;7.956;2023-06-24T03:55:19;102487.72;;;14.51;79.41
64298;BME280;50639;53.270;7.956;2023-06-24T03:57:44;102485.50;;;14.54;79.50
64298;BME280;50639;53.270;7.956;2023-06-24T04:00:11;102487.47;;;14.60;79.63
64298;BME280;50639;53.270;7.956;2023-06-24T04:02:43;102490.78;;;14.71;79.32
64298;BME280;50639;53.270;7.956;2023-06-24T04:05:10;102490.56;;;14.80;79.14
64298;BME280;50639;53.270;7.956;2023-06-24T04:07:36;102491.19;;;14.90;79.01
64298;BME280;50639;53.270;7.956;2023-06-24T04:10:05;102490.09;;;14.99;79.06
64298;BME280;50639;53.270;7.956;2023-06-24T04:12:36;102480.63;;;15.12;79.20
64298;BME280;50639;53.270;7.956;2023-06-24T04:15:05;102481.06;;;15.15;79.54
64298;BME280;50639;53.270;7.956;2023-06-24T04:17:32;102477.03;;;15.19;79.68
64298;BME280;50639;53.270;7.956;2023-06-24T04:19:59;102475.78;;;15.22;79.86
64298;BME280;50639;53.270;7.956;2023-06-24T04:22:25;102483.88;;;15.22;79.76
64298;BME280;50639;53.270;7.956;2023-06-24T04:24:54;102489.09;;;15.23;79.95
64298;BME280;50639;53.270;7.956;2023-06-24T04:27:22;102484.19;;;15.27;80.34
64298;BME280;50639;53.270;7.956;2023-06-24T04:29:48;102478.25;;;15.31;80.27
64298;BME280;50639;53.270;7.956;2023-06-24T04:32:14;102480.59;;;15.34;80.40
64298;BME280;50639;53.270;7.956;2023-06-24T04:34:39;102476.16;;;15.41;80.43
64298;BME280;50639;53.270;7.956;2023-06-24T04:37:06;102481.00;;;15.46;80.19
64298;BME280;50639;53.270;7.956;2023-06-24T04:39:31;102477.88;;;15.57;80.26
64298;BME280;50639;53.270;7.956;2023-06-24T04:41:57;102481.53;;;15.64;80.44
64298;BME280;50639;53.270;7.956;2023-06-24T04:44:22;102477.44;;;15.68;80.54
64298;BME280;50639;53.270;7.956;2023-06-24T04:46:48;102478.59;;;15.74;80.83
64298;BME280;50639;53.270;7.956;2023-06-24T04:49:13;102475.66;;;15.61;81.95
64298;BME280;50639;53.270;7.956;2023-06-24T04:51:40;102484.16;;;15.72;82.09
64298;BME280;50639;53.270;7.956;2023-06-24T04:54:06;102482.88;;;15.83;81.82
64298;BME280;50639;53.270;7.956;2023-06-24T04:56:33;102485.94;;;15.95;81.42
64298;BME280;50639;53.270;7.956;2023-06-24T04:59:00;102485.66;;;16.04;80.94
64298;BME280;50639;53.270;7.956;2023-06-24T05:01:25;102476.63;;;16.12;80.80
64298;BME280;50639;53.270;7.956;2023-06-24T05:03:51;102474.22;;;16.17;80.91
64298;BME280;50639;53.270;7.956;2023-06-24T05:06:16;102474.97;;;16.26;81.27
64298;BME280;50639;53.270;7.956;2023-06-24T05:08:42;102474.69;;;16.21;82.12
64298;BME280;50639;53.270;7.956;2023-06-24T05:11:07;102479.63;;;16.17;82.97
64298;BME280;50639;53.270;7.956;2023-06-24T05:13:33;102475.44;;;16.14;83.45
64298;BME280;50639;53.270;7.956;2023-06-24T05:15:58;102482.22;;;16.25;83.63
64298;BME280;50639;53.270;7.956;2023-06-24T05:18:24;102474.38;;;16.30;83.59
64298;BME280;50639;53.270;7.956;2023-06-24T05:20:49;102468.78;;;16.46;83.04
64298;BME280;50639;53.270;7.956;2023-06-24T05:23:15;102473.72;;;16.43;83.29
64298;BME280;50639;53.270;7.956;2023-06-24T05:25:42;102477.06;;;16.45;83.98
64298;BME280;50639;53.270;7.956;2023-06-24T05:28:07;102472.34;;;16.62;83.11
64298;BME280;50639;53.270;7.956;2023-06-24T05:30:33;102477.50;;;16.78;82.39
64298;BME280;50639;53.270;7.956;2023-06-24T05:32:59;102460.22;;;16.93;81.65
64298;BME280;50639;53.270;7.956;2023-06-24T05:35:25;102467.66;;;16.91;81.90
64298;BME280;50639;53.270;7.956;2023-06-24T05:37:50;102463.25;;;17.05;81.82
64298;BME280;50639;53.270;7.956;2023-06-24T05:40:16;102458.59;;;17.20;80.50
64298;BME280;50639;53.270;7.956;2023-06-24T05:42:41;102461.81;;;17.30;80.45
64298;BME280;50639;53.270;7.956;2023-06-24T05:45:07;102465.06;;;17.47;79.86
64298;BME280;50639;53.270;7.956;2023-06-24T05:47:33;102475.28;;;17.52;79.01
64298;BME280;50639;53.270;7.956;2023-06-24T05:49:58;102477.41;;;17.56;79.05
64298;BME280;50639;53.270;7.956;2023-06-24T05:52:24;102468.34;;;17.64;78.68
64298;BME280;50639;53.270;7.956;2023-06-24T05:54:50;102482.09;;;17.69;78.44
64298;BME280;50639;53.270;7.956;2023-06-24T05:57:15;102488.78;;;17.73;78.11
64298;BME280;50639;53.270;7.956;2023-06-24T05:59:41;102493.03;;;17.82;77.79
64298;BME280;50639;53.270;7.956;2023-06-24T06:02:06;102487.47;;;17.90;77.25
64298;BME280;50639;53.270;7.956;2023-06-24T06:04:32;102499.50;;;17.88;76.42
64298;BME280;50639;53.270;7.956;2023-06-24T06:06:57;102499.34;;;17.96;76.17
64298;BME280;50639;53.270;7.956;2023-06-24T06:09:23;102501.88;;;18.04;76.31
64298;BME280;50639;53.270;7.956;2023-06-24T06:11:49;102502.78;;;18.11;75.39
64298;BME280;50639;53.270;7.956;2023-06-24T06:14:14;102504.47;;;18.19;76.00
64298;BME280;50639;53.270;7.956;2023-06-24T06:16:40;102498.66;;;18.22;75.84
64298;BME280;50639;53.270;7.956;2023-06-24T06:19:05;102496.31;;;18.47;75.40
64298;BME280;50639;53.270;7.956;2023-06-24T06:21:31;102508.44;;;18.57;74.69
64298;BME280;50639;53.270;7.956;2023-06-24T06:23:57;102499.47;;;18.57;74.76
64298;BME280;50639;53.270;7.956;2023-06-24T06:26:22;102496.31;;;18.53;74.57
64298;BME280;50639;53.270;7.956;2023-06-24T06:28:48;102498.50;;;18.71;74.18
64298;BME280;50639;53.270;7.956;2023-06-24T06:31:15;102493.31;;;18.76;73.85
64298;BME280;50639;53.270;7.956;2023-06-24T06:33:40;102494.97;;;18.77;73.90
64298;BME280;50639;53.270;7.956;2023-06-24T06:36:06;102485.41;;;18.81;73.54
64298;BME280;50639;53.270;7.956;2023-06-24T06:38:34;102484.97;;;18.77;72.28
64298;BME280;50639;53.270;7.956;2023-06-24T06:41:00;102477.50;;;18.86;72.93
64298;BME280;50639;53.270;7.956;2023-06-24T06:43:25;102490.44;;;18.97;72.70
64298;BME280;50639;53.270;7.956;2023-06-24T06:45:51;102487.34;;;19.07;72.14
64298;BME280;50639;53.270;7.956;2023-06-24T06:48:17;102491.91;;;19.00;72.11
64298;BME280;50639;53.270;7.956;2023-06-24T06:50:42;102481.53;;;19.16;71.41
64298;BME280;50639;53.270;7.956;2023-06-24T06:53:08;102489.63;;;19.10;68.92
64298;BME280;50639;53.270;7.956;2023-06-24T06:55:35;102481.09;;;19.20;69.13
64298;BME280;50639;53.270;7.956;2023-06-24T06:58:01;102485.31;;;19.48;69.43
64298;BME280;50639;53.270;7.956;2023-06-24T07:00:28;102483.66;;;19.67;67.40
64298;BME280;50639;53.270;7.956;2023-06-24T07:02:53;102494.88;;;19.84;66.11
64298;BME280;50639;53.270;7.956;2023-06-24T07:05:19;102493.81;;;19.98;65.30
64298;BME280;50639;53.270;7.956;2023-06-24T07:07:44;102490.63;;;20.14;65.56
64298;BME280;50639;53.270;7.956;2023-06-24T07:10:10;102490.44;;;20.22;66.22
64298;BME280;50639;53.270;7.956;2023-06-24T07:12:36;102485.34;;;20.33;64.59
64298;BME280;50639;53.270;7.956;2023-06-24T07:15:02;102488.00;;;20.59;62.56
64298;BME280;50639;53.270;7.956;2023-06-24T07:17:27;102489.41;;;20.75;63.21
64298;BME280;50639;53.270;7.956;2023-06-24T07:19:53;102488.63;;;20.99;62.05
64298;BME280;50639;53.270;7.956;2023-06-24T07:22:18;102493.28;;;20.85;63.03
64298;BME280;50639;53.270;7.956;2023-06-24T07:24:44;102491.97;;;21.01;63.34
64298;BME280;50639;53.270;7.956;2023-06-24T07:27:09;102483.69;;;21.21;63.46
64298;BME280;50639;53.270;7.956;2023-06-24T07:29:35;102491.25;;;21.19;62.81
64298;BME280;50639;53.270;7.956;2023-06-24T07:32:00;102480.03;;;21.33;62.28
64298;BME280;50639;53.270;7.956;2023-06-24T07:34:26;102485.97;;;21.24;62.20
64298;BME280;50639;53.270;7.956;2023-06-24T07:36:53;102493.50;;;21.22;61.05
64298;BME280;50639;53.270;7.956;2023-06-24T07:39:18;102493.47;;;21.28;61.83
64298;BME280;50639;53.270;7.956;2023-06-24T07:41:44;102487.22;;;21.28;61.80
64298;BME280;50639;53.270;7.956;2023-06-24T07:44:09;102485.69;;;21.32;61.23
64298;BME280;50639;53.270;7.956;2023-06-24T07:46:35;102494.63;;;21.39;62.11
64298;BME280;50639;53.270;7.956;2023-06-24T07:49:01;102497.53;;;21.44;61.50
64298;BME280;50639;53.270;7.956;2023-06-24T07:51:27;102494.34;;;21.47;62.23
64298;BME280;50639;53.270;7.956;2023-06-24T07:53:52;102501.44;;;21.23;62.29
64298;BME280;50639;53.270;7.956;2023-06-24T07:56:18;102489.81;;;21.10;63.22
64298;BME280;50639;53.270;7.956;2023-06-24T07:58:44;102494.94;;;21.24;62.39
64298;BME280;50639;53.270;7.956;2023-06-24T08:01:09;102488.06;;;21.22;63.24
64298;BME280;50639;53.270;7.956;2023-06-24T08:03:35;102488.81;;;21.35;62.21
64298;BME280;50639;53.270;7.956;2023-06-24T08:06:02;102492.03;;;21.51;61.78
64298;BME280;50639;53.270;7.956;2023-06-24T08:08:28;102476.00;;;21.43;61.28
64298;BME280;50639;53.270;7.956;2023-06-24T08:10:53;102475.28;;;21.54;62.25
64298;BME280;50639;53.270;7.956;2023-06-24T08:13:19;102479.31;;;21.69;60.23
64298;BME280;50639;53.270;7.956;2023-06-24T08:15:46;102475.56;;;21.64;57.96
64298;BME280;50639;53.270;7.956;2023-06-24T08:18:11;102477.94;;;21.60;59.85
64298;BME280;50639;53.270;7.956;2023-06-24T08:20:37;102487.88;;;21.91;61.07
64298;BME280;50639;53.270;7.956;2023-06-24T08:23:03;102483.41;;;21.78;60.06
64298;BME280;50639;53.270;7.956;2023-06-24T08:25:29;102489.72;;;21.72;59.82
64298;BME280;50639;53.270;7.956;2023-06-24T08:27:55;102485.66;;;21.82;60.11
64298;BME280;50639;53.270;7.956;2023-06-24T08:30:21;102482.19;;;21.93;57.90
64298;BME280;50639;53.270;7.956;2023-06-24T08:32:46;102484.22;;;22.04;58.62
64298;BME280;50639;53.270;7.956;2023-06-24T08:35:12;102477.41;;;22.13;60.61
64298;BME280;50639;53.270;7.956;2023-06-24T08:37:37;102484.22;;;22.22;59.83
64298;BME280;50639;53.270;7.956;2023-06-24T08:40:04;102478.03;;;22.33;57.68
64298;BME280;50639;53.270;7.956;2023-06-24T08:42:30;102473.78;;;22.37;59.80
64298;BME280;50639;53.270;7.956;2023-06-24T08:44:55;102468.84;;;22.46;58.74
64298;BME280;50639;53.270;7.956;2023-06-24T08:47:23;102461.94;;;22.43;58.61
64298;BME280;50639;53.270;7.956;2023-06-24T08:49:53;102460.00;;;22.50;59.98
64298;BME280;50639;53.270;7.956;2023-06-24T08:52:25;102466.91;;;22.65;58.13
64298;BME280;50639;53.270;7.956;2023-06-24T08:54:54;102460.84;;;22.63;58.56
64298;BME280;50639;53.270;7.956;2023-06-24T08:57:20;102455.19;;;22.64;56.68
64298;BME280;50639;53.270;7.956;2023-06-24T08:59:46;102453.72;;;22.80;56.34
64298;BME280;50639;53.270;7.956;2023-06-24T09:02:11;102448.88;;;22.82;56.67
64298;BME280;50639;53.270;7.956;2023-06-24T09:04:39;102452.59;;;22.99;57.80
64298;BME280;50639;53.270;7.956;2023-06-24T09:07:05;102455.59;;;23.09;55.41
64298;BME280;50639;53.270;7.956;2023-06-24T09:09:30;102451.66;;;23.05;55.96
64298;BME280;50639;53.270;7.956;2023-06-24T09:11:58;102447.31;;;23.16;56.79
64298;BME280;50639;53.270;7.956;2023-06-24T09:14:25;102451.00;;;23.21;52.67
64298;BME280;50639;53.270;7.956;2023-06-24T09:17:00;102449.22;;;23.27;54.98
64298;BME280;50639;53.270;7.956;2023-06-24T09:19:28;102452.66;;;23.34;54.14
64298;BME280;50639;53.270;7.956;2023-06-24T09:22:03;102458.09;;;23.22;55.36
64298;BME280;50639;53.270;7.956;2023-06-24T09:24:36;102458.69;;;23.24;55.03
64298;BME280;50639;53.270;7.956;2023-06-24T09:27:03;102459.44;;;23.43;54.45
64298;BME280;50639;53.270;7.956;2023-06-24T09:29:33;102456.84;;;23.60;54.34
64298;BME280;50639;53.270;7.956;2023-06-24T09:31:59;102447.63;;;23.61;52.96
64298;BME280;50639;53.270;7.956;2023-06-24T09:34:28;102449.75;;;23.71;53.76
64298;BME280;50639;53.270;7.956;2023-06-24T09:36:56;102450.69;;;23.88;53.04
64298;BME280;50639;53.270;7.956;2023-06-24T09:39:22;102437.63;;;23.90;51.97
64298;BME280;50639;53.270;7.956;2023-06-24T09:41:54;102447.56;;;23.96;52.27
64298;BME280;50639;53.270;7.956;2023-06-24T09:44:20;102433.91;;;24.08;52.56
64298;BME280;50639;53.270;7.956;2023-06-24T09:46:46;102432.25;;;24.07;52.47
64298;BME280;50639;53.270;7.956;2023-06-24T09:49:12;102431.88;;;24.26;53.10
64298;BME280;50639;53.270;7.956;2023-06-24T09:51:39;102435.06;;;24.35;51.60
64298;BME280;50639;53.270;7.956;2023-06-24T09:54:09;102426.34;;;24.38;52.08
64298;BME280;50639;53.270;7.956;2023-06-24T09:56:36;102429.91;;;24.38;51.29
64298;BME280;50639;53.270;7.956;2023-06-24T09:59:05;102431.72;;;24.33;51.15
64298;BME280;50639;53.270;7.956;2023-06-24T10:01:32;102433.88;;;24.31;50.06
64298;BME280;50639;53.270;7.956;2023-06-24T10:04:01;102432.56;;;24.62;51.02
64298;BME280;50639;53.270;7.956;2023-06-24T10:06:27;102428.09;;;24.72;49.74
64298;BME280;50639;53.270;7.956;2023-06-24T10:08:54;102416.38;;;24.89;50.15
64298;BME280;50639;53.270;7.956;2023-06-24T10:11:20;102418.81;;;25.19;51.14
64298;BME280;50639;53.270;7.956;2023-06-24T10:13:46;102412.34;;;25.25;49.68
64298;BME280;50639;53.270;7.956;2023-06-24T10:16:12;102416.47;;;25.44;49.09
64298;BME280;50639;53.270;7.956;2023-06-24T10:18:39;102409.03;;;25.78;47.17
64298;BME280;50639;53.270;7.956;2023-06-24T10:21:06;102412.75;;;25.89;48.52
64298;BME280;50639;53.270;7.956;2023-06-24T10:37:20;102398.44;;;26.03;44.94
64298;BME280;50639;53.270;7.956;2023-06-24T10:44:54;102391.09;;;26.31;45.41
64298;BME280;50639;53.270;7.956;2023-06-24T10:47:21;102392.34;;;26.45;46.01
64298;BME280;50639;53.270;7.956;2023-06-24T10:49:47;102381.50;;;26.28;45.82
64298;BME280;50639;53.270;7.956;2023-06-24T10:52:13;102388.13;;;26.10;45.39
64298;BME280;50639;53.270;7.956;2023-06-24T10:54:40;102381.88;;;25.93;45.51
64298;BME280;50639;53.270;7.956;2023-06-24T10:57:07;102384.38;;;26.21;45.47
64298;BME280;50639;53.270;7.956;2023-06-24T10:59:46;102375.00;;;26.39;43.80
64298;BME280;50639;53.270;7.956;2023-06-24T11:02:15;102381.56;;;26.11;44.95
64298;BME280;50639;53.270;7.956;2023-06-24T11:04:47;102382.97;;;26.41;46.13
64298;BME280;50639;53.270;7.956;2023-06-24T11:07:15;102384.13;;;26.45;45.56
64298;BME280;50639;53.270;7.956;2023-06-24T11:09:41;102374.47;;;26.37;45.42
64298;BME280;50639;53.270;7.956;2023-06-24T11:12:09;102370.91;;;26.69;44.63
64298;BME280;50639;53.270;7.956;2023-06-24T11:14:35;102382.69;;;26.91;42.54
64298;BME280;50639;53.270;7.956;2023-06-24T11:17:02;102385.03;;;27.14;40.60
64298;BME280;50639;53.270;7.956;2023-06-24T11:19:29;102378.31;;;27.32;40.47
64298;BME280;50639;53.270;7.956;2023-06-24T11:21:58;102369.47;;;27.67;40.18
64298;BME280;50639;53.270;7.956;2023-06-24T11:24:24;102373.31;;;27.61;40.44
64298;BME280;50639;53.270;7.956;2023-06-24T11:26:51;102369.06;;;27.43;39.61
64298;BME280;50639;53.270;7.956;2023-06-24T11:29:16;102372.09;;;27.10;41.22
64298;BME280;50639;53.270;7.956;2023-06-24T11:31:42;102386.78;;;26.93;43.00
64298;BME280;50639;53.270;7.956;2023-06-24T11:34:09;102377.22;;;26.69;42.69
64298;BME280;50639;53.270;7.956;2023-06-24T11:36:34;102369.97;;;26.85;43.64
64298;BME280;50639;53.270;7.956;2023-06-24T11:39:00;102371.75;;;26.69;43.50
64298;BME280;50639;53.270;7.956;2023-06-24T11:41:26;102364.19;;;27.18;43.11
64298;BME280;50639;53.270;7.956;2023-06-24T11:43:53;102365.69;;;26.94;42.83
64298;BME280;50639;53.270;7.956;2023-06-24T11:46:24;102364.63;;;26.68;43.54
64298;BME280;50639;53.270;7.956;2023-06-24T11:48:51;102368.09;;;26.10;45.02
64298;BME280;50639;53.270;7.956;2023-06-24T11:51:16;102366.88;;;26.22;44.34
64298;BME280;50639;53.270;7.956;2023-06-24T11:53:43;102362.25;;;26.01;44.44
64298;BME280;50639;53.270;7.956;2023-06-24T11:56:11;102363.00;;;26.18;44.32
64298;BME280;50639;53.270;7.956;2023-06-24T11:58:36;102358.78;;;26.33;45.07
64298;BME280;50639;53.270;7.956;2023-06-24T12:01:02;102352.66;;;26.47;45.38
64298;BME280;50639;53.270;7.956;2023-06-24T12:03:29;102355.19;;;26.27;43.23
64298;BME280;50639;53.270;7.956;2023-06-24T12:05:57;102357.13;;;26.32;44.09
64298;BME280;50639;53.270;7.956;2023-06-24T12:08:23;102356.28;;;26.58;44.47
64298;BME280;50639;53.270;7.956;2023-06-24T12:10:48;102358.03;;;26.69;45.27
64298;BME280;50639;53.270;7.956;2023-06-24T12:13:14;102350.31;;;26.34;43.58
64298;BME280;50639;53.270;7.956;2023-06-24T12:15:40;102360.09;;;26.52;44.59
64298;BME280;50639;53.270;7.956;2023-06-24T12:18:07;102359.38;;;26.35;44.97
64298;BME280;50639;53.270;7.956;2023-06-24T12:20:32;102355.34;;;26.20;44.19
64298;BME280;50639;53.270;7.956;2023-06-24T12:22:58;102359.97;;;26.42;45.15
64298;BME280;50639;53.270;7.956;2023-06-24T12:25:24;102361.22;;;26.56;46.40
64298;BME280;50639;53.270;7.956;2023-06-24T12:27:50;102361.50;;;26.28;43.68
64298;BME280;50639;53.270;7.956;2023-06-24T12:30:16;102358.59;;;26.17;44.16
64298;BME280;50639;53.270;7.956;2023-06-24T12:32:42;102352.78;;;26.63;45.02
64298;BME280;50639;53.270;7.956;2023-06-24T12:35:08;102354.34;;;26.27;44.36
64298;BME280;50639;53.270;7.956;2023-06-24T12:37:38;102349.16;;;26.30;43.55
64298;BME280;50639;53.270;7.956;2023-06-24T12:40:04;102350.44;;;26.49;43.01
64298;BME280;50639;53.270;7.956;2023-06-24T12:42:30;102356.09;;;26.65;43.59
64298;BME280;50639;53.270;7.956;2023-06-24T12:44:55;102351.84;;;26.52;42.43
64298;BME280;50639;53.270;7.956;2023-06-24T12:47:22;102348.91;;;26.58;44.17
64298;BME280;50639;53.270;7.956;2023-06-24T12:49:48;102347.59;;;26.66;44.83
64298;BME280;50639;53.270;7.956;2023-06-24T12:52:14;102341.81;;;26.94;42.29
64298;BME280;50639;53.270;7.956;2023-06-24T12:54:40;102352.41;;;27.18;42.36
64298;BME280;50639;53.270;7.956;2023-06-24T12:57:06;102344.91;;;27.03;42.94
64298;BME280;50639;53.270;7.956;2023-06-24T12:59:32;102344.03;;;27.34;45.03
64298;BME280;50639;53.270;7.956;2023-06-24T13:01:57;102335.50;;;27.36;42.19
64298;BME280;50639;53.270;7.956;2023-06-24T13:04:23;102343.13;;;27.71;43.20
64298;BME280;50639;53.270;7.956;2023-06-24T13:06:50;102337.63;;;27.71;42.73
64298;BME280;50639;53.270;7.956;2023-06-24T13:09:16;102336.00;;;27.80;41.86
64298;BME280;50639;53.270;7.956;2023-06-24T13:11:41;102342.34;;;27.81;40.48
64298;BME280;50639;53.270;7.956;2023-06-24T13:14:08;102331.88;;;27.73;41.48
64298;BME280;50639;53.270;7.956;2023-06-24T13:16:38;102324.91;;;28.32;40.47
64298;BME280;50639;53.270;7.956;2023-06-24T13:19:04;102323.28;;;28.47;39.90